Time;durP1;ratioP1;P1;durP2;ratioP2;P2;SDS_P1;SDS_P2;PMS_P1;PMS_P2;Temp;Humidity;BMP_temperature;BMP_pressure;BME280_temperature;BME280_humidity;BME280_pressure;Samples;Min_cycle;Max_cycle;Signal;HPM_P1;HPM_P2
2023/08/07 00:00:08;;;;;;;17.02;3.67;;;15.60;99.90;;;;;;5052318;28;20090;-67
2023/08/07 00:02:34;;;;;;;17.98;6.15;;;15.60;99.90;;;;;;5050445;28;20036;-66
2023/08/07 00:04:59;;;;;;;17.00;5.22;;;15.60;99.90;;;;;;5054845;28;20036;-66
2023/08/07 00:07:25;;;;;;;19.58;5.43;;;15.60;99.90;;;;;;5051916;28;20044;-67
2023/08/07 00:09:51;;;;;;;14.38;4.30;;;15.60;99.90;;;;;;5052982;28;20032;-66
2023/08/07 00:12:16;;;;;;;14.25;5.20;;;15.50;99.90;;;;;;5052216;28;20049;-66
2023/08/07 00:14:42;;;;;;;14.05;3.53;;;15.40;99.90;;;;;;5049592;28;20130;-66
2023/08/07 00:17:08;;;;;;;17.95;4.38;;;15.40;99.90;;;;;;5045241;28;20425;-65
2023/08/07 00:19:34;;;;;;;19.40;4.03;;;15.40;99.90;;;;;;5051725;28;20059;-66
2023/08/07 00:21:59;;;;;;;18.38;4.43;;;15.40;99.90;;;;;;5045640;28;20072;-67
2023/08/07 00:24:25;;;;;;;15.73;4.13;;;15.50;99.90;;;;;;5050650;28;20055;-65
2023/08/07 00:26:50;;;;;;;14.20;3.60;;;15.40;99.90;;;;;;5044405;28;20028;-66
2023/08/07 00:29:16;;;;;;;15.50;3.30;;;15.50;99.90;;;;;;5052045;28;20481;-66
2023/08/07 00:31:42;;;;;;;15.85;3.78;;;15.50;99.90;;;;;;5051740;28;20468;-66
2023/08/07 00:34:09;;;;;;;16.27;3.55;;;15.50;99.90;;;;;;5051059;28;20518;-66
2023/08/07 00:36:35;;;;;;;12.70;3.80;;;15.60;99.90;;;;;;5048947;28;20017;-66
2023/08/07 00:39:03;;;;;;;22.35;4.55;;;15.50;99.90;;;;;;5053231;28;20031;-67
2023/08/07 00:41:29;;;;;;;12.02;3.70;;;15.60;99.90;;;;;;5051650;28;20215;-67
2023/08/07 00:43:54;;;;;;;15.93;3.40;;;15.60;99.90;;;;;;5044875;28;20119;-67
2023/08/07 00:46:20;;;;;;;16.58;3.53;;;15.60;99.90;;;;;;5051507;28;20019;-67
2023/08/07 00:48:46;;;;;;;17.95;3.50;;;15.70;99.90;;;;;;5056586;28;20025;-67
2023/08/07 00:51:12;;;;;;;23.58;4.18;;;15.60;99.90;;;;;;5068365;28;20122;-66
2023/08/07 00:53:39;;;;;;;15.65;3.78;;;15.50;99.90;;;;;;5059222;28;20484;-66
2023/08/07 00:56:06;;;;;;;12.55;3.38;;;15.40;99.90;;;;;;5060764;28;20456;-66
2023/08/07 00:58:32;;;;;;;17.42;3.88;;;15.30;99.90;;;;;;5059850;28;20079;-66
2023/08/07 01:00:58;;;;;;;18.00;3.47;;;15.30;99.90;;;;;;5067576;28;20044;-66
2023/08/07 01:03:24;;;;;;;15.00;3.45;;;15.20;99.90;;;;;;5055322;28;20044;-65
2023/08/07 01:05:49;;;;;;;16.25;3.55;;;15.20;99.90;;;;;;5065698;28;20029;-66
2023/08/07 01:08:15;;;;;;;16.23;3.22;;;15.20;99.90;;;;;;5061571;28;20079;-66
2023/08/07 01:11:05;;;;;;;11.50;3.45;;;15.20;99.90;;;;;;5061390;28;20032;-66
2023/08/07 01:13:56;;;;;;;14.43;3.50;;;15.10;99.90;;;;;;5042553;28;20570;-67
2023/08/07 01:16:28;;;;;;;14.68;3.83;;;15.20;99.90;;;;;;5064884;28;20025;-65
2023/08/07 01:18:55;;;;;;;15.75;3.63;;;15.20;99.90;;;;;;5054174;28;20361;-66
2023/08/07 01:21:21;;;;;;;13.57;3.05;;;15.20;99.90;;;;;;5071811;28;20515;-67
2023/08/07 01:23:48;;;;;;;16.33;3.60;;;15.20;99.90;;;;;;5061096;28;20035;-67
2023/08/07 01:26:14;;;;;;;15.70;3.92;;;15.20;99.90;;;;;;5065552;28;20392;-68
2023/08/07 01:28:51;;;;;;;14.77;3.33;;;15.30;99.90;;;;;;5068251;28;20456;-67
2023/08/07 01:31:20;;;;;;;15.73;3.55;;;15.30;99.90;;;;;;5058746;28;20032;-66
2023/08/07 01:34:08;;;;;;;23.67;3.78;;;15.30;99.90;;;;;;5069236;28;20128;-66
2023/08/07 01:36:34;;;;;;;15.95;3.85;;;15.30;99.90;;;;;;5067248;28;20435;-66
2023/08/07 01:39:03;;;;;;;19.88;3.75;;;15.40;99.90;;;;;;5059052;28;20090;-66
2023/08/07 01:41:29;;;;;;;14.65;3.63;;;15.40;99.90;;;;;;5071570;28;20116;-66
2023/08/07 01:43:55;;;;;;;20.25;3.72;;;15.40;99.90;;;;;;5061854;28;20107;-66
2023/08/07 01:46:20;;;;;;;18.85;4.10;;;15.40;99.90;;;;;;5064443;28;20051;-67
2023/08/07 01:48:46;;;;;;;15.27;3.55;;;15.50;99.90;;;;;;5056251;28;20028;-66
2023/08/07 01:51:12;;;;;;;18.27;4.10;;;15.50;99.90;;;;;;5072175;28;20064;-66
2023/08/07 01:53:37;;;;;;;15.57;3.67;;;15.50;99.90;;;;;;5059173;28;20071;-67
2023/08/07 01:56:03;;;;;;;18.58;4.20;;;15.50;99.90;;;;;;5066845;28;20404;-66
2023/08/07 01:58:29;;;;;;;20.42;3.85;;;15.50;99.90;;;;;;5064936;28;20460;-67
2023/08/07 02:00:54;;;;;;;19.00;4.18;;;15.60;99.90;;;;;;5059195;28;20025;-66
2023/08/07 02:03:20;;;;;;;19.58;4.18;;;15.60;99.90;;;;;;5071066;28;20524;-67
2023/08/07 02:05:46;;;;;;;15.60;3.58;;;15.60;99.90;;;;;;5054533;28;20032;-67
2023/08/07 02:08:12;;;;;;;19.02;3.50;;;15.60;99.90;;;;;;5054710;28;20037;-66
2023/08/07 02:10:37;;;;;;;14.95;3.33;;;15.50;99.90;;;;;;5054457;28;20086;-66
2023/08/07 02:13:03;;;;;;;18.75;4.07;;;15.50;99.90;;;;;;5054355;28;20482;-65
2023/08/07 02:15:29;;;;;;;14.68;3.17;;;15.50;99.90;;;;;;5054394;28;20036;-65
2023/08/07 02:17:54;;;;;;;19.13;3.92;;;15.50;99.90;;;;;;5054547;28;20025;-66
2023/08/07 02:20:20;;;;;;;16.65;4.10;;;15.60;99.90;;;;;;5054343;28;20029;-66
2023/08/07 02:22:45;;;;;;;16.65;3.03;;;15.50;99.90;;;;;;5053179;28;20519;-65
2023/08/07 02:25:11;;;;;;;14.13;3.40;;;15.60;99.90;;;;;;5054182;28;20036;-66
2023/08/07 02:27:37;;;;;;;15.98;3.53;;;15.60;99.90;;;;;;5054201;28;20021;-64
2023/08/07 02:30:03;;;;;;;20.17;4.07;;;15.60;99.90;;;;;;5054194;28;20049;-65
2023/08/07 02:32:29;;;;;;;26.98;4.80;;;15.60;99.90;;;;;;5053800;28;20052;-65
2023/08/07 02:34:55;;;;;;;19.55;4.53;;;15.60;99.90;;;;;;5054045;28;20029;-65
2023/08/07 02:37:21;;;;;;;19.80;4.32;;;15.60;99.90;;;;;;5054236;28;20497;-66
2023/08/07 02:39:46;;;;;;;21.70;4.50;;;15.60;99.90;;;;;;5054002;28;20063;-66
2023/08/07 02:42:12;;;;;;;18.25;4.22;;;15.60;99.90;;;;;;5053958;28;20025;-66
2023/08/07 02:44:38;;;;;;;20.70;4.82;;;15.50;99.90;;;;;;5053664;28;20028;-66
2023/08/07 02:47:03;;;;;;;21.67;4.50;;;15.50;99.90;;;;;;5054061;28;20025;-67
2023/08/07 02:49:29;;;;;;;24.92;4.93;;;15.40;99.90;;;;;;5053807;28;20059;-67
2023/08/07 02:51:55;;;;;;;23.90;4.43;;;15.40;99.90;;;;;;5053734;28;20032;-67
2023/08/07 02:54:20;;;;;;;19.70;4.63;;;15.30;99.90;;;;;;5053669;28;20033;-67
2023/08/07 02:56:46;;;;;;;18.17;4.00;;;15.30;99.90;;;;;;5053982;28;20116;-67
2023/08/07 02:59:11;;;;;;;16.58;3.63;;;15.30;99.90;;;;;;5053757;28;20111;-67
2023/08/07 03:01:37;;;;;;;18.10;3.92;;;15.20;99.90;;;;;;5053494;28;20036;-66
2023/08/07 03:04:03;;;;;;;19.15;4.05;;;15.20;99.90;;;;;;5053598;28;20055;-67
2023/08/07 03:06:28;;;;;;;16.08;3.28;;;15.30;99.90;;;;;;5053128;28;20100;-67
2023/08/07 03:08:54;;;;;;;17.60;4.50;;;15.20;99.90;;;;;;5053514;28;20040;-66
2023/08/07 03:11:19;;;;;;;16.92;3.35;;;15.30;99.90;;;;;;5053677;28;20036;-66
2023/08/07 03:13:45;;;;;;;17.05;3.92;;;15.20;99.90;;;;;;5053056;28;20033;-66
2023/08/07 03:16:11;;;;;;;11.05;3.05;;;15.30;99.90;;;;;;5053429;28;20021;-66
2023/08/07 03:18:36;;;;;;;15.63;2.63;;;15.20;99.90;;;;;;5053419;28;20024;-65
2023/08/07 03:21:02;;;;;;;10.00;2.70;;;15.30;99.90;;;;;;5052083;28;20029;-65
2023/08/07 03:23:28;;;;;;;17.45;3.60;;;15.30;99.90;;;;;;5053280;28;20032;-66
2023/08/07 03:26:09;;;;;;;13.85;3.03;;;15.30;99.90;;;;;;5053366;28;20134;-66
2023/08/07 03:28:35;;;;;;;15.82;3.67;;;15.30;99.90;;;;;;5053260;28;20037;-66
2023/08/07 03:31:02;;;;;;;15.32;2.55;;;15.40;99.90;;;;;;5053202;28;20116;-65
2023/08/07 03:33:28;;;;;;;15.35;3.50;;;15.40;99.90;;;;;;5052479;28;20506;-66
2023/08/07 03:35:53;;;;;;;13.85;3.10;;;15.40;99.90;;;;;;5052970;28;20108;-66
2023/08/07 03:38:19;;;;;;;15.82;3.85;;;15.50;99.90;;;;;;5052746;28;20036;-66
2023/08/07 03:40:45;;;;;;;14.73;3.42;;;15.50;99.90;;;;;;5052700;28;20060;-66
2023/08/07 03:43:10;;;;;;;15.38;2.90;;;15.40;99.90;;;;;;5053033;28;20036;-67
2023/08/07 03:45:36;;;;;;;14.63;3.03;;;15.40;99.90;;;;;;5052976;28;20116;-66
2023/08/07 03:48:01;;;;;;;13.00;3.33;;;15.40;99.90;;;;;;5052843;28;20791;-66
2023/08/07 03:50:27;;;;;;;15.23;3.28;;;15.40;99.90;;;;;;5052916;28;20025;-67
2023/08/07 03:52:52;;;;;;;17.52;3.55;;;15.40;99.90;;;;;;5052621;28;20041;-67
2023/08/07 03:55:18;;;;;;;18.13;3.90;;;15.40;99.90;;;;;;5052474;28;20053;-67
2023/08/07 03:57:44;;;;;;;23.27;4.68;;;15.50;99.90;;;;;;5052808;28;20075;-67
2023/08/07 04:00:10;;;;;;;14.25;3.20;;;15.50;99.90;;;;;;5052849;28;20104;-67
2023/08/07 04:02:35;;;;;;;15.55;3.85;;;15.50;99.90;;;;;;5052870;28;20044;-67
2023/08/07 04:05:01;;;;;;;17.85;3.55;;;15.50;99.90;;;;;;5052776;28;20461;-67
2023/08/07 04:07:27;;;;;;;13.10;3.65;;;15.50;99.90;;;;;;5052857;28;20779;-67
2023/08/07 04:09:52;;;;;;;14.88;3.42;;;15.40;99.90;;;;;;5052978;28;20385;-66
2023/08/07 04:12:18;;;;;;;14.88;3.47;;;15.50;99.90;;;;;;5052788;28;20036;-67
2023/08/07 04:14:43;;;;;;;15.57;3.42;;;15.50;99.90;;;;;;5052574;28;20077;-66
2023/08/07 04:17:09;;;;;;;16.30;3.70;;;15.50;99.90;;;;;;5052503;28;20040;-66
2023/08/07 04:19:34;;;;;;;20.15;3.78;;;15.50;99.90;;;;;;5052541;28;20468;-67
2023/08/07 04:22:00;;;;;;;20.02;4.30;;;15.50;99.90;;;;;;5052539;28;20464;-67
2023/08/07 04:24:25;;;;;;;18.58;4.38;;;15.50;99.90;;;;;;5052419;28;20482;-67
2023/08/07 04:26:51;;;;;;;15.20;3.90;;;15.50;99.90;;;;;;5052320;28;20037;-66
2023/08/07 04:29:17;;;;;;;14.60;3.40;;;15.60;99.90;;;;;;5052433;28;20520;-66
2023/08/07 04:31:42;;;;;;;19.08;3.80;;;15.60;99.90;;;;;;5052409;28;20033;-67
2023/08/07 04:34:08;;;;;;;12.43;3.22;;;15.60;99.90;;;;;;5051971;28;20067;-66
2023/08/07 04:36:34;;;;;;;13.48;3.50;;;15.60;99.90;;;;;;5052389;28;20116;-66
2023/08/07 04:38:59;;;;;;;14.75;3.90;;;15.60;99.90;;;;;;5052273;28;20022;-66
2023/08/07 04:41:25;;;;;;;16.55;4.97;;;15.60;99.90;;;;;;5051944;28;20124;-66
2023/08/07 04:43:50;;;;;;;17.85;4.93;;;15.70;99.90;;;;;;5052426;28;20032;-67
2023/08/07 04:46:16;;;;;;;17.13;5.65;;;15.70;99.90;;;;;;5055373;28;20032;-66
2023/08/07 04:48:41;;;;;;;17.42;5.18;;;15.70;99.90;;;;;;5056365;28;20166;-66
2023/08/07 04:51:07;;;;;;;20.42;6.82;;;15.70;99.90;;;;;;5056144;28;20033;-66
2023/08/07 04:53:33;;;;;;;21.05;5.93;;;15.70;99.90;;;;;;5056069;28;20083;-66
2023/08/07 04:56:02;;;;;;;14.52;4.18;;;15.80;99.90;;;;;;5056003;28;20503;-67
2023/08/07 04:58:28;;;;;;;19.10;5.43;;;15.80;99.90;;;;;;5054808;28;20670;-66
2023/08/07 05:00:57;;;;;;;16.70;4.72;;;15.80;99.90;;;;;;5055848;28;20472;-66
2023/08/07 05:03:24;;;;;;;15.75;5.30;;;15.80;99.90;;;;;;5055817;28;20499;-65
2023/08/07 05:05:49;;;;;;;20.15;6.07;;;15.80;99.90;;;;;;5055906;28;20053;-66
2023/08/07 05:08:16;;;;;;;14.82;3.97;;;15.80;99.90;;;;;;5055556;28;20130;-67
2023/08/07 05:10:42;;;;;;;15.00;4.65;;;15.80;99.90;;;;;;5055653;28;20033;-66
2023/08/07 05:13:07;;;;;;;19.83;4.30;;;15.90;99.90;;;;;;5055828;28;20381;-65
2023/08/07 05:15:33;;;;;;;18.27;4.82;;;15.90;99.90;;;;;;5055890;28;20112;-68
2023/08/07 05:17:58;;;;;;;17.75;4.72;;;15.80;99.90;;;;;;5055867;28;20056;-67
2023/08/07 05:20:24;;;;;;;18.88;6.95;;;15.80;99.90;;;;;;5055929;28;20060;-66
2023/08/07 05:22:49;;;;;;;14.82;5.10;;;15.70;99.90;;;;;;5055588;28;20103;-66
2023/08/07 05:25:16;;;;;;;21.52;6.07;;;15.70;99.90;;;;;;5055355;28;20036;-66
2023/08/07 05:27:42;;;;;;;20.60;5.45;;;15.60;99.90;;;;;;5055531;28;20114;-65
2023/08/07 05:30:09;;;;;;;17.88;5.65;;;15.60;99.90;;;;;;5055428;28;20029;-65
2023/08/07 05:32:37;;;;;;;19.35;7.85;;;15.60;99.90;;;;;;5055471;28;20087;-65
2023/08/07 05:35:04;;;;;;;18.77;7.45;;;15.60;99.90;;;;;;5055353;28;20025;-64
2023/08/07 05:37:31;;;;;;;16.60;5.93;;;15.60;99.90;;;;;;5055173;28;20087;-65
2023/08/07 05:39:57;;;;;;;21.33;9.15;;;15.70;99.90;;;;;;5055601;28;20032;-66
2023/08/07 05:42:23;;;;;;;19.35;7.28;;;15.70;99.90;;;;;;5055409;28;20104;-66
2023/08/07 05:44:48;;;;;;;21.38;9.38;;;15.80;99.90;;;;;;5054932;28;20029;-65
2023/08/07 05:47:14;;;;;;;18.80;6.80;;;15.90;99.90;;;;;;5054245;28;20056;-65
2023/08/07 05:49:40;;;;;;;16.35;5.82;;;15.90;99.90;;;;;;5055084;28;20025;-66
2023/08/07 05:52:06;;;;;;;24.50;10.05;;;16.00;99.90;;;;;;5054855;28;20029;-65
2023/08/07 05:54:31;;;;;;;23.70;6.38;;;16.00;99.90;;;;;;5055039;28;20045;-66
2023/08/07 05:56:57;;;;;;;17.10;6.07;;;16.00;99.90;;;;;;5054423;28;20028;-65
2023/08/07 05:59:23;;;;;;;19.63;5.55;;;16.10;99.90;;;;;;5054848;28;20029;-66
2023/08/07 06:01:48;;;;;;;21.45;6.82;;;16.20;99.90;;;;;;5054770;28;20082;-66
2023/08/07 06:04:14;;;;;;;17.83;5.45;;;16.20;99.90;;;;;;5054790;28;20029;-65
2023/08/07 06:06:40;;;;;;;21.40;6.22;;;16.30;99.90;;;;;;5054367;28;20027;-66
2023/08/07 06:09:06;;;;;;;26.65;8.15;;;16.30;99.90;;;;;;5055118;28;20484;-66
2023/08/07 06:11:32;;;;;;;21.13;6.25;;;16.30;99.90;;;;;;5054959;28;20033;-66
2023/08/07 06:13:58;;;;;;;18.35;5.85;;;16.30;99.90;;;;;;5054735;28;20041;-65
2023/08/07 06:16:24;;;;;;;21.52;7.00;;;16.30;99.90;;;;;;5054952;28;20124;-67
2023/08/07 06:18:49;;;;;;;23.50;8.25;;;16.30;99.90;;;;;;5054587;28;20029;-66
2023/08/07 06:21:15;;;;;;;21.45;7.13;;;16.30;99.90;;;;;;5054174;28;20036;-66
2023/08/07 06:23:41;;;;;;;19.50;5.28;;;16.20;99.90;;;;;;5054319;28;20025;-65
2023/08/07 06:26:08;;;;;;;26.23;5.85;;;16.20;99.90;;;;;;5054579;28;20031;-65
2023/08/07 06:28:34;;;;;;;20.27;4.75;;;16.10;99.90;;;;;;5054324;28;20028;-65
2023/08/07 06:31:02;;;;;;;17.70;4.50;;;16.10;99.90;;;;;;5054513;28;20029;-66
2023/08/07 06:33:27;;;;;;;17.95;5.22;;;16.20;99.90;;;;;;5053820;28;20055;-67
2023/08/07 06:35:53;;;;;;;19.30;4.63;;;16.30;99.90;;;;;;5053848;28;20112;-65
2023/08/07 06:38:18;;;;;;;20.42;3.78;;;16.50;99.90;;;;;;5054356;28;20029;-66
2023/08/07 06:40:45;;;;;;;15.18;3.85;;;17.00;99.90;;;;;;5054428;28;20036;-66
2023/08/07 06:43:10;;;;;;;14.73;3.55;;;17.40;99.90;;;;;;5054281;28;20025;-66
2023/08/07 06:45:36;;;;;;;18.02;4.22;;;18.00;99.90;;;;;;5054239;28;20024;-66
2023/08/07 06:48:01;;;;;;;17.30;5.55;;;18.70;99.90;;;;;;5054208;28;20078;-66
2023/08/07 06:50:27;;;;;;;12.75;3.38;;;19.60;99.90;;;;;;5053854;28;20033;-66
2023/08/07 06:52:54;;;;;;;15.18;3.40;;;20.80;99.90;;;;;;5053811;28;20036;-66
2023/08/07 06:55:19;;;;;;;10.52;3.20;;;22.00;99.90;;;;;;5053882;28;20074;-67
2023/08/07 06:57:45;;;;;;;13.77;3.25;;;22.60;99.90;;;;;;5054085;28;20503;-66
2023/08/07 07:00:11;;;;;;;11.32;2.63;;;23.00;99.90;;;;;;5053886;28;20048;-66
2023/08/07 07:02:37;;;;;;;10.70;2.90;;;23.50;99.90;;;;;;5053418;28;20100;-66
2023/08/07 07:05:02;;;;;;;14.02;3.75;;;23.60;99.50;;;;;;5053482;28;20108;-66
2023/08/07 07:07:28;;;;;;;11.38;2.20;;;23.50;99.90;;;;;;5053228;28;20029;-66
2023/08/07 07:09:54;;;;;;;12.68;3.28;;;23.90;99.40;;;;;;5053691;28;20036;-66
2023/08/07 07:12:19;;;;;;;9.55;2.35;;;23.80;98.70;;;;;;5052525;28;20036;-66
2023/08/07 07:14:45;;;;;;;10.05;2.95;;;23.20;99.00;;;;;;5053013;28;20094;-65
2023/08/07 07:17:10;;;;;;;13.43;2.70;;;22.40;99.90;;;;;;5051884;28;20102;-66
2023/08/07 07:19:36;;;;;;;15.57;2.90;;;21.70;99.90;;;;;;5051454;28;20025;-65
2023/08/07 07:22:01;;;;;;;15.82;3.15;;;20.90;99.90;;;;;;5052273;28;20394;-66
2023/08/07 07:24:27;;;;;;;10.85;2.83;;;20.50;99.90;;;;;;5052443;28;20032;-67
2023/08/07 07:26:52;;;;;;;13.80;2.97;;;20.20;99.90;;;;;;5052057;28;20107;-65
2023/08/07 07:29:18;;;;;;;13.70;3.40;;;19.90;99.90;;;;;;5051573;28;20045;-66
2023/08/07 07:31:44;;;;;;;12.70;2.63;;;19.70;99.90;;;;;;5052327;28;20028;-65
2023/08/07 07:34:09;;;;;;;17.02;3.65;;;19.60;99.90;;;;;;5052695;28;20073;-66
2023/08/07 07:36:35;;;;;;;13.77;2.85;;;19.50;99.90;;;;;;5052803;28;20025;-66
2023/08/07 07:39:00;;;;;;;8.77;2.42;;;19.40;99.90;;;;;;5052664;28;20035;-66
2023/08/07 07:41:27;;;;;;;15.68;3.15;;;19.50;99.90;;;;;;5052576;28;20089;-67
2023/08/07 07:43:53;;;;;;;9.63;2.97;;;19.60;99.90;;;;;;5052712;28;20029;-67
2023/08/07 07:46:19;;;;;;;12.50;2.30;;;19.50;99.90;;;;;;5052360;28;20036;-65
2023/08/07 07:48:44;;;;;;;10.75;2.42;;;19.50;99.90;;;;;;5052526;28;20025;-67
2023/08/07 07:51:10;;;;;;;10.60;2.38;;;19.40;99.90;;;;;;5052736;28;20029;-66
2023/08/07 07:53:35;;;;;;;14.10;3.00;;;19.30;99.90;;;;;;5052275;28;20041;-67
2023/08/07 07:56:01;;;;;;;11.93;2.90;;;19.30;99.90;;;;;;5052711;28;20322;-67
2023/08/07 07:58:26;;;;;;;13.20;2.70;;;19.30;99.90;;;;;;5051949;28;20052;-66
2023/08/07 08:00:53;;;;;;;12.48;2.70;;;19.30;99.90;;;;;;5050920;28;20392;-65
2023/08/07 08:03:20;;;;;;;9.52;2.58;;;19.40;99.90;;;;;;5048616;28;20516;-66
2023/08/07 08:05:50;;;;;;;13.15;2.85;;;19.60;99.90;;;;;;5052298;28;20043;-67
2023/08/07 08:08:16;;;;;;;11.35;2.88;;;19.80;99.90;;;;;;5052263;28;20031;-66
2023/08/07 08:10:43;;;;;;;9.90;2.40;;;19.90;99.90;;;;;;5052039;28;20036;-66
2023/08/07 08:13:09;;;;;;;11.23;2.53;;;19.90;99.90;;;;;;5052269;28;20031;-66
2023/08/07 08:15:35;;;;;;;13.35;2.60;;;19.70;99.90;;;;;;5051749;28;20100;-66
2023/08/07 08:18:00;;;;;;;11.93;2.45;;;19.50;99.90;;;;;;5051717;28;20101;-67
2023/08/07 08:20:26;;;;;;;12.32;2.83;;;19.40;99.90;;;;;;5053519;28;20100;-66
2023/08/07 08:22:51;;;;;;;16.48;3.28;;;19.20;99.90;;;;;;5050828;28;20469;-66
2023/08/07 08:25:20;;;;;;;15.48;3.25;;;19.10;99.90;;;;;;5053152;28;20116;-66
2023/08/07 08:27:45;;;;;;;13.68;2.65;;;19.00;99.90;;;;;;5051815;28;20096;-66
2023/08/07 08:30:11;;;;;;;14.30;3.72;;;19.00;99.90;;;;;;5054734;28;20109;-67
2023/08/07 08:32:39;;;;;;;14.25;2.75;;;18.90;99.90;;;;;;5051496;28;20018;-66
2023/08/07 08:35:05;;;;;;;14.98;3.00;;;18.90;99.90;;;;;;5051872;28;20037;-66
2023/08/07 08:37:31;;;;;;;14.82;2.83;;;19.10;99.90;;;;;;5052926;28;20020;-66
2023/08/07 08:39:56;;;;;;;12.95;3.58;;;19.20;99.90;;;;;;5051861;28;20120;-66
2023/08/07 08:42:22;;;;;;;11.70;3.38;;;19.60;99.90;;;;;;5051716;28;20028;-66
2023/08/07 08:44:53;;;;;;;12.32;3.33;;;20.00;99.90;;;;;;5052054;28;20021;-65
2023/08/07 08:47:20;;;;;;;12.90;3.10;;;20.50;99.90;;;;;;5049209;28;20060;-66
2023/08/07 08:50:07;;;;;;;13.88;3.53;;;20.90;99.90;;;;;;5051803;28;20021;-66
2023/08/07 08:52:34;;;;;;;11.63;3.20;;;21.20;99.90;;;;;;5051640;28;20025;-66
2023/08/07 08:55:01;;;;;;;12.55;2.83;;;21.30;99.90;;;;;;5049599;28;20103;-66
2023/08/07 08:57:28;;;;;;;12.30;3.05;;;21.50;99.90;;;;;;5051439;28;20091;-66
2023/08/07 08:59:56;;;;;;;9.75;2.72;;;21.40;99.90;;;;;;5050484;28;20055;-66
2023/08/07 09:02:22;;;;;;;9.43;2.80;;;21.30;99.90;;;;;;5051613;28;20384;-66
2023/08/07 09:04:47;;;;;;;10.77;2.40;;;21.10;99.90;;;;;;5052025;28;20108;-67
2023/08/07 09:07:16;;;;;;;15.10;2.97;;;20.90;99.90;;;;;;5051845;28;20029;-67
2023/08/07 09:09:44;;;;;;;14.05;2.33;;;20.60;99.90;;;;;;5052018;28;20463;-67
2023/08/07 09:12:19;;;;;;;12.65;2.65;;;20.20;99.90;;;;;;5049819;28;20174;-67
2023/08/07 09:14:48;;;;;;;14.20;3.47;;;19.90;99.90;;;;;;5051641;28;20041;-66
2023/08/07 09:17:16;;;;;;;11.52;2.35;;;19.80;99.90;;;;;;5052067;28;20037;-66
2023/08/07 09:19:42;;;;;;;11.80;2.70;;;19.90;99.90;;;;;;5051186;28;20124;-67
2023/08/07 09:22:08;;;;;;;9.13;2.63;;;20.00;99.90;;;;;;5055805;28;20124;-66
2023/08/07 09:24:34;;;;;;;9.23;2.75;;;20.30;99.90;;;;;;5051528;28;20040;-66
2023/08/07 09:27:00;;;;;;;13.20;2.70;;;20.70;99.90;;;;;;5052296;28;20385;-66
2023/08/07 09:29:27;;;;;;;10.30;2.40;;;21.50;99.90;;;;;;5051999;28;20036;-66
2023/08/07 09:31:54;;;;;;;10.20;2.50;;;22.30;99.90;;;;;;5054069;28;20037;-68
2023/08/07 09:34:20;;;;;;;11.75;2.28;;;22.60;99.90;;;;;;5054127;28;20053;-67
2023/08/07 09:36:46;;;;;;;15.35;2.38;;;22.60;99.90;;;;;;5055593;28;20087;-66
2023/08/07 09:39:11;;;;;;;6.20;1.98;;;22.50;99.80;;;;;;5055033;28;20033;-66
2023/08/07 09:41:37;;;;;;;10.02;2.30;;;22.40;99.80;;;;;;5055515;28;20044;-66
2023/08/07 09:44:10;;;;;;;9.43;2.08;;;22.20;99.90;;;;;;5055539;28;20037;-66
2023/08/07 09:46:45;;;;;;;10.35;2.50;;;21.90;99.90;;;;;;5055026;28;20039;-67
2023/08/07 09:49:11;;;;;;;11.43;2.28;;;21.50;99.90;;;;;;5054494;28;20021;-66
2023/08/07 09:51:44;;;;;;;13.50;2.70;;;21.30;99.90;;;;;;5053348;28;20534;-67
2023/08/07 09:54:11;;;;;;;14.52;3.35;;;21.10;99.90;;;;;;5054898;28;20440;-68
2023/08/07 09:56:37;;;;;;;14.75;3.05;;;20.90;99.90;;;;;;5054923;28;20373;-67
2023/08/07 09:59:04;;;;;;;19.08;6.70;;;20.80;99.90;;;;;;5054086;28;20039;-66
2023/08/07 10:01:29;;;;;;;16.67;4.88;;;20.40;99.90;;;;;;5054641;28;20029;-67
2023/08/07 10:03:55;;;;;;;17.00;6.03;;;19.90;99.90;;;;;;5055191;28;20028;-67
2023/08/07 10:06:21;;;;;;;17.17;5.38;;;19.50;99.90;;;;;;5052662;28;20051;-67
2023/08/07 10:08:47;;;;;;;18.42;5.47;;;19.20;99.90;;;;;;5054873;28;20051;-67
2023/08/07 10:11:14;;;;;;;14.98;6.30;;;18.90;99.90;;;;;;5054557;28;20037;-66
2023/08/07 10:13:40;;;;;;;22.35;8.07;;;18.80;99.90;;;;;;5054751;28;20049;-66
2023/08/07 10:16:07;;;;;;;18.85;5.68;;;18.70;99.90;;;;;;5054550;28;20032;-67
2023/08/07 10:18:33;;;;;;;19.17;6.55;;;18.50;99.90;;;;;;5054711;28;20055;-66
2023/08/07 10:21:01;;;;;;;21.50;6.55;;;18.50;99.90;;;;;;5054656;28;20032;-66
2023/08/07 10:23:27;;;;;;;18.48;5.40;;;18.60;99.90;;;;;;5054468;28;20461;-67
2023/08/07 10:25:54;;;;;;;16.15;4.93;;;18.90;99.90;;;;;;5054458;28;20028;-67
2023/08/07 10:28:22;;;;;;;20.55;6.22;;;19.30;99.90;;;;;;5053272;28;20548;-67
2023/08/07 10:30:49;;;;;;;12.63;4.53;;;19.80;99.90;;;;;;5062736;28;20028;-66
2023/08/07 10:33:17;;;;;;;11.25;3.58;;;20.40;99.90;;;;;;5058344;28;20052;-67
2023/08/07 10:35:49;;;;;;;20.85;7.80;;;20.60;99.90;;;;;;5074057;28;20040;-68
2023/08/07 10:38:18;;;;;;;14.00;5.28;;;20.80;99.90;;;;;;5062177;28;20071;-67
2023/08/07 10:41:05;;;;;;;15.45;4.20;;;21.20;99.90;;;;;;5053769;28;20037;-68
2023/08/07 10:43:36;;;;;;;14.10;4.15;;;22.10;99.90;;;;;;5053013;28;20522;-67
2023/08/07 10:46:23;;;;;;;8.70;2.80;;;23.20;99.80;;;;;;5058031;28;20488;-66
2023/08/07 10:48:57;;;;;;;11.38;4.47;;;24.20;98.00;;;;;;5073284;28;20056;-66
2023/08/07 10:51:29;;;;;;;10.27;2.53;;;25.50;96.30;;;;;;5073556;28;20033;-65
2023/08/07 10:53:56;;;;;;;7.65;2.40;;;26.00;95.10;;;;;;5074078;28;20040;-66
2023/08/07 10:56:40;;;;;;;7.45;2.67;;;26.70;94.60;;;;;;5073552;28;20025;-66
2023/08/07 10:59:10;;;;;;;8.77;3.03;;;27.90;93.60;;;;;;5074139;28;20415;-66
2023/08/07 11:01:38;;;;;;;8.38;3.05;;;29.10;92.30;;;;;;5053486;28;20427;-65
2023/08/07 11:04:11;;;;;;;11.65;3.47;;;30.10;90.70;;;;;;5053879;28;20028;-65
2023/08/07 11:06:38;;;;;;;10.85;2.92;;;30.70;90.20;;;;;;5054025;28;20543;-66
2023/08/07 11:09:06;;;;;;;8.80;3.20;;;30.50;90.00;;;;;;5053529;28;20040;-66
2023/08/07 11:11:46;;;;;;;11.02;3.60;;;30.60;89.00;;;;;;5053576;28;20028;-66
2023/08/07 11:14:13;;;;;;;12.15;4.13;;;30.70;88.90;;;;;;5053571;28;20064;-66
2023/08/07 11:16:39;;;;;;;12.82;3.50;;;30.70;88.70;;;;;;5053262;28;20040;-67
2023/08/07 11:19:06;;;;;;;16.02;4.43;;;31.00;87.60;;;;;;5052327;28;20509;-67
2023/08/07 11:21:32;;;;;;;11.85;4.53;;;31.10;88.00;;;;;;5052436;28;20029;-67
2023/08/07 11:23:58;;;;;;;8.80;3.67;;;30.40;86.10;;;;;;5052045;28;20477;-67
2023/08/07 11:26:25;;;;;;;9.40;2.53;;;29.90;87.50;;;;;;5052127;28;20028;-66
2023/08/07 11:28:51;;;;;;;7.95;2.72;;;29.90;87.00;;;;;;5052079;28;20033;-67
2023/08/07 11:31:21;;;;;;;9.45;2.97;;;30.30;86.40;;;;;;5051710;28;20025;-67
2023/08/07 11:33:51;;;;;;;10.20;2.63;;;30.80;86.90;;;;;;5051266;28;20037;-67
2023/08/07 11:36:16;;;;;;;8.10;2.47;;;31.20;85.20;;;;;;5051928;28;20017;-67
2023/08/07 11:38:43;;;;;;;8.50;2.08;;;31.30;84.50;;;;;;5051687;28;20491;-67
2023/08/07 11:41:10;;;;;;;7.75;2.65;;;31.30;84.70;;;;;;5051979;28;20142;-67
2023/08/07 11:43:36;;;;;;;8.18;2.75;;;31.50;84.90;;;;;;5051582;28;20434;-67
2023/08/07 11:46:07;;;;;;;14.45;2.45;;;31.40;83.40;;;;;;5051593;28;20457;-67
2023/08/07 11:48:44;;;;;;;8.70;4.20;;;31.20;84.90;;;;;;5053282;28;20036;-67
2023/08/07 11:51:10;;;;;;;10.75;4.35;;;31.20;84.40;;;;;;5052620;28;20106;-68
2023/08/07 11:53:37;;;;;;;15.02;6.03;;;31.00;83.60;;;;;;5052700;28;20040;-67
2023/08/07 11:56:09;;;;;;;9.65;4.47;;;30.60;83.60;;;;;;5053070;28;20040;-67
2023/08/07 11:58:36;;;;;;;11.75;3.53;;;29.90;84.50;;;;;;5052657;28;20378;-67
2023/08/07 12:01:09;;;;;;;10.27;3.05;;;29.80;85.70;;;;;;5052708;28;20033;-67
2023/08/07 12:03:40;;;;;;;9.48;2.78;;;29.90;84.90;;;;;;5052386;28;20071;-67
2023/08/07 12:06:07;;;;;;;9.98;2.67;;;30.20;86.30;;;;;;5052932;28;20024;-68
2023/08/07 12:08:34;;;;;;;6.10;2.42;;;30.80;85.30;;;;;;5052953;28;20044;-69
2023/08/07 12:11:09;;;;;;;8.77;3.72;;;31.00;81.70;;;;;;5052301;28;20037;-68
2023/08/07 12:13:38;;;;;;;8.90;3.80;;;31.20;83.00;;;;;;5051482;28;20037;-68
2023/08/07 12:16:04;;;;;;;10.88;3.95;;;31.40;81.70;;;;;;5052492;28;20464;-67
2023/08/07 12:18:31;;;;;;;13.13;4.18;;;31.30;81.20;;;;;;5052808;28;20052;-67
2023/08/07 12:21:01;;;;;;;12.23;4.22;;;31.30;81.40;;;;;;5052147;28;20029;-67
2023/08/07 12:23:27;;;;;;;10.73;4.05;;;31.30;81.90;;;;;;5052770;28;20461;-67
2023/08/07 12:25:53;;;;;;;10.25;3.63;;;30.80;81.60;;;;;;5052454;28;20493;-68
2023/08/07 12:28:19;;;;;;;8.45;2.88;;;30.30;82.10;;;;;;5052653;28;20048;-67
2023/08/07 12:30:46;;;;;;;10.75;3.00;;;30.20;82.80;;;;;;5052031;28;20484;-67
2023/08/07 12:33:12;;;;;;;8.68;2.78;;;30.20;83.60;;;;;;5052117;28;20048;-67
2023/08/07 12:35:38;;;;;;;9.15;3.13;;;30.40;83.30;;;;;;5051128;28;20380;-69